STAZIONE AMATORIALE METEOROLOGICA DI VILLALVERNIA
Centro raccolta dati meteo



Villalvernia CAM_1 more information Villalvernia CAM_1


Villalvernia CAM_2 more information Villalvernia CAM_2


Visit our other weather sites:

Template documentation
and downloads

And another site


You find our weather info also at:

Weather Underground

AWEKAS

Citizen Weather Observer Program (CWOP)

HAMweather, WeatherForYou, PWS Weather



Wind From: 17-01-2018 10:00 Until: 23:59 warning for: Wind Level: Yellow info button

Nearby METAR Reports

   
LIMJ - Genova/Sestri, Italy
Distance from station: SSE 55 km
Updated: 17-01-2018 11:20
Clear  
Clear  
   Wind: NW 40.7 km/h<br />Gust to 40.7 km/h
Wind: NW 40.7 km/h
Gust to 40.7 km/h
Temperature: 14°C
Dew Point: -5°C
Humidity: 27%
Barometer: 1005 hPa
Visibility: More than 10 km
Cloud details: Clear
LIMJ 171020Z 32022G36KT 290V360 CAVOK 14/M05 Q1005
LIMC - Milano/Malpensa, Italy
Distance from station: N 87 km
Updated: 17-01-2018 11:20
Clear  
Clear  
   Wind: South 7.4 km/h
Wind: South 7.4 km/h
Temperature: 6°C
Wind Chill: 4°C
Dew Point: 6°C
Humidity: 100%
Barometer: 1004 hPa
Visibility: More than 10 km
Cloud details: Clear
LIMC 171020Z 17004KT 040V210 CAVOK 06/06 Q1004 NOSIG
LIML - Milano/Linate, Italy
Distance from station: NE 91 km
Updated: 17-01-2018 11:20
Few Clouds  
Few Clouds  
   Wind: WNW 9.3 km/h
Wind: WNW 9.3 km/h
Temperature: 8°C
Wind Chill: 7°C
Dew Point: 2°C
Humidity: 66%
Barometer: 1004 hPa
Clouds: Few Clouds
Visibility: More than 10 km
Cloud details: Few Clouds 152.4 m
LIML 171020Z 29005KT 260V340 9999 FEW005 08/02 Q1004 NOSIG
LIMV - Giovi Pass, Italy
Distance from station: SE 46 km
Updated: 16-01-2018 09:55
NOT Current
Patches of, Fog, Partly Cloudy  
Patches of, Fog, Partly Cloudy  
   Wind: varies Calm
Wind: varies Calm
Temperature: 2°C
Dew Point: 2°C
Humidity: 100%
Barometer: 1010 hPa
Clouds: Partly Cloudy
Visibility: 8 km
Cloud details: Few Clouds 121.9 m,
Partly Cloudy 304.8 m
LIMV 160855Z /////KT 8000 0800N BCFG FEW004 SCT010 02/02 Q1010 RMK BKN MON N INVIS S LIB NC VAL N INVIS S FOSCHIA VIS MIN 0800N
LIME - Bergamo/Orio Ser, Italy
Distance from station: NE 129 km
Updated: 17-01-2018 11:20
Few Clouds  
Few Clouds  
   Wind: WNW 38.9 km/h<br />Gust to 38.9 km/h
Wind: WNW 38.9 km/h
Gust to 38.9 km/h
Temperature: 11°C
Dew Point: -5°C
Humidity: 32%
Barometer: 1002 hPa
Clouds: Few Clouds
Visibility: More than 10 km
Cloud details: Few Clouds 1828.8 m
LIME 171020Z 30021G37KT 270V340 9999 FEW060 11/M05 Q1002 NOSIG
LIRF - Rome/Fiumicino, Italy
Distance from station: ESE 7 km
Updated: 17-01-2018 11:20
Partly Cloudy  
Partly Cloudy  
   Wind: West 31.5 km/h
Wind: West 31.5 km/h
Temperature: 16°C
Dew Point: 11°C
Humidity: 72%
Barometer: 1004 hPa
Clouds: Partly Cloudy
Visibility: 7 km
Cloud details: Partly Cloudy 914.4 m,
Partly Cloudy 1524 m
LIRF 171020Z 26017KT 7000 SCT030 SCT050 16/11 Q1004 NOSIG
LIRA - Ciampino(It-Afb/, Italy
Distance from station: E 37 km
Updated: 17-01-2018 11:20
Mostly Cloudy  
Mostly Cloudy  
   Wind: West 24.1 km/h
Wind: West 24.1 km/h
Temperature: 15°C
Dew Point: 11°C
Humidity: 77%
Barometer: 1004 hPa
Clouds: Mostly Cloudy
Visibility: 8 km
Cloud details: Few Clouds 609.6 m,
Mostly Cloudy 762 m
LIRA 171020Z 26013KT 8000 FEW020 BKN025 15/11 Q1004
  

Script developed by  Saratoga-weather.org Adapted for the template by  Weerstation Leuven